Time;durP1;ratioP1;P1;durP2;ratioP2;P2;SDS_P1;SDS_P2;PMS_P1;PMS_P2;Temp;Humidity;BMP_temperature;BMP_pressure;BME280_temperature;BME280_humidity;BME280_pressure;Samples;Min_cycle;Max_cycle;Signal;HPM_P1;HPM_P2
2021/09/30 00:00:50;;;;;;;;;;;;;;;14.80;78.80;101141.28;1410530;87;20809;-86
2021/09/30 00:03:17;;;;;;;;;;;;;;;14.81;78.77;101145.60;1410524;87;21239;-86
2021/09/30 00:05:44;;;;;;;;;;;;;;;14.83;78.86;101139.63;1395611;88;20386;-87
2021/09/30 00:08:11;;;;;;;;;;;;;;;14.84;78.80;101137.29;1410567;87;20267;-86
2021/09/30 00:10:40;;;;;;;;;;;;;;;14.85;78.68;101144.81;1410696;87;20236;-86
2021/09/30 00:13:22;;;;;;;;;;;;;;;14.85;78.48;101144.31;1410668;87;20244;-87
2021/09/30 00:15:52;;;;;;;;;;;;;;;14.81;78.49;101141.61;1409201;87;20304;-87
2021/09/30 00:52:51;;;;;;;;;;;;;;;14.82;78.01;101153.95;1352957;91;20880;-87
2021/09/30 02:18:17;;;;;;;;;;;;;;;14.77;77.96;101158.91;1407940;87;20802;-86
2021/09/30 02:23:28;;;;;;;;;;;;;;;14.66;78.28;101175.16;1407583;87;20252;-86
2021/09/30 02:58:12;;;;;;;;;;;;;;;13.80;85.66;101194.33;1338100;93;20328;-86
2021/09/30 03:00:32;;;;;;;;;;;;;;;13.78;84.85;101196.30;1318726;94;20360;-87
2021/09/30 03:03:00;;;;;;;;;;;;;;;13.75;85.31;101193.94;1338664;92;20306;-88
2021/09/30 03:05:28;;;;;;;;;;;;;;;13.73;84.75;101188.78;1338325;93;20245;-87
2021/09/30 03:07:55;;;;;;;;;;;;;;;13.69;85.87;101189.22;1373188;93;20244;-86
2021/09/30 03:10:23;;;;;;;;;;;;;;;13.59;85.99;101193.77;1393008;88;20259;-85
2021/09/30 03:12:52;;;;;;;;;;;;;;;13.56;86.42;101191.41;1392984;88;20341;-86
2021/09/30 03:18:13;;;;;;;;;;;;;;;13.49;86.07;101202.64;1392670;88;20259;-86
2021/09/30 03:23:09;;;;;;;;;;;;;;;13.42;85.31;101196.72;1392774;88;20750;-87
2021/09/30 03:25:37;;;;;;;;;;;;;;;13.35;86.69;101204.46;1393134;88;20253;-86
2021/09/30 03:28:05;;;;;;;;;;;;;;;13.27;87.00;101205.69;1393032;88;20344;-86
2021/09/30 03:30:32;;;;;;;;;;;;;;;13.19;87.59;101210.85;1392963;88;20274;-87
2021/09/30 03:33:02;;;;;;;;;;;;;;;13.21;86.51;101212.88;1393025;87;20252;-86
2021/09/30 03:35:28;;;;;;;;;;;;;;;13.20;86.75;101211.19;1392962;88;20282;-88
2021/09/30 03:37:55;;;;;;;;;;;;;;;13.20;86.84;101209.86;1400034;88;20745;-87
2021/09/30 03:40:22;;;;;;;;;;;;;;;13.21;85.87;101210.22;1402660;88;20304;-87
2021/09/30 03:42:49;;;;;;;;;;;;;;;13.20;87.22;101212.52;1402447;88;20245;-86
2021/09/30 03:45:16;;;;;;;;;;;;;;;13.19;87.35;101208.19;1392771;88;20254;-87
2021/09/30 03:47:43;;;;;;;;;;;;;;;13.18;87.45;101215.83;1392702;88;20277;-90
2021/09/30 03:50:16;;;;;;;;;;;;;;;13.17;87.11;101211.48;1392953;88;20270;-91
2021/09/30 04:00:30;;;;;;;;;;;;;;;13.18;87.01;101215.33;1407724;88;20857;-90
2021/09/30 04:02:57;;;;;;;;;;;;;;;13.13;88.78;101219.41;1392724;88;20259;-93
2021/09/30 04:05:24;;;;;;;;;;;;;;;13.13;87.75;101216.75;1392899;88;20364;-93
2021/09/30 04:07:51;;;;;;;;;;;;;;;13.15;87.33;101218.28;1392960;88;20795;-92
2021/09/30 04:10:18;;;;;;;;;;;;;;;13.16;88.32;101221.78;1393145;88;20245;-94
2021/09/30 04:12:45;;;;;;;;;;;;;;;13.09;88.86;101217.05;1392970;88;20260;-93
2021/09/30 04:15:12;;;;;;;;;;;;;;;13.08;88.49;101225.98;1393096;88;20327;-93
2021/09/30 04:17:39;;;;;;;;;;;;;;;13.04;89.30;101232.58;1393356;88;20297;-94
2021/09/30 04:20:06;;;;;;;;;;;;;;;13.06;88.43;101235.94;1393152;88;20237;-92
2021/09/30 04:22:33;;;;;;;;;;;;;;;13.03;88.74;101234.90;1393020;88;20743;-93
2021/09/30 04:25:00;;;;;;;;;;;;;;;13.05;88.01;101235.56;1395025;87;20292;-94
2021/09/30 04:27:27;;;;;;;;;;;;;;;13.03;89.74;101241.55;1405160;88;20239;-94
2021/09/30 04:29:54;;;;;;;;;;;;;;;12.99;90.57;101241.46;1393296;88;20254;-93
2021/09/30 04:32:21;;;;;;;;;;;;;;;12.99;89.56;101237.48;1409319;88;20252;-91
2021/09/30 04:34:47;;;;;;;;;;;;;;;12.99;89.94;101240.14;1412236;87;20773;-91
2021/09/30 04:37:14;;;;;;;;;;;;;;;12.99;91.18;101236.15;1397719;88;20244;-92
2021/09/30 04:39:41;;;;;;;;;;;;;;;13.03;89.63;101239.34;1412721;87;20245;-92
2021/09/30 04:42:09;;;;;;;;;;;;;;;13.01;90.10;101243.98;1412614;87;20251;-92
2021/09/30 04:44:35;;;;;;;;;;;;;;;13.03;89.41;101245.52;1405074;87;20315;-92
2021/09/30 04:47:02;;;;;;;;;;;;;;;13.02;90.06;101246.48;1400420;87;20809;-92
2021/09/30 04:49:29;;;;;;;;;;;;;;;13.03;90.07;101244.20;1398093;88;20973;-92
2021/09/30 04:51:59;;;;;;;;;;;;;;;13.04;89.57;101248.52;1393859;87;20246;-90
2021/09/30 04:54:26;;;;;;;;;;;;;;;13.05;90.77;101251.52;1402903;89;20731;-93
2021/09/30 04:56:53;;;;;;;;;;;;;;;13.06;90.27;101252.34;1399254;88;20260;-91
2021/09/30 04:59:20;;;;;;;;;;;;;;;13.08;89.48;101252.55;1392967;88;20247;-91
2021/09/30 05:01:47;;;;;;;;;;;;;;;13.12;89.71;101254.92;1396701;88;20743;-91
2021/09/30 05:04:14;;;;;;;;;;;;;;;13.08;89.57;101255.70;1396478;88;20217;-91
2021/09/30 05:06:41;;;;;;;;;;;;;;;13.09;89.71;101262.72;1395005;88;20328;-91
2021/09/30 05:09:08;;;;;;;;;;;;;;;13.09;89.49;101264.88;1392610;88;20782;-91
2021/09/30 05:11:35;;;;;;;;;;;;;;;13.09;89.52;101264.88;1392897;88;20329;-92
2021/09/30 05:14:03;;;;;;;;;;;;;;;13.12;89.03;101268.21;1392802;88;20246;-91
2021/09/30 05:16:30;;;;;;;;;;;;;;;13.09;90.53;101272.85;1392817;88;20332;-91
2021/09/30 05:18:57;;;;;;;;;;;;;;;13.13;89.34;101277.87;1393326;88;20783;-90
2021/09/30 05:21:24;;;;;;;;;;;;;;;13.15;89.18;101271.91;1394285;88;20270;-93
2021/09/30 05:23:51;;;;;;;;;;;;;;;13.18;88.82;101272.98;1394664;88;20260;-91
2021/09/30 05:26:18;;;;;;;;;;;;;;;13.20;89.99;101277.64;1394629;88;20799;-93
2021/09/30 05:28:48;;;;;;;;;;;;;;;13.18;89.90;101278.30;1394282;88;20240;-93
2021/09/30 05:31:15;;;;;;;;;;;;;;;13.17;90.22;101281.91;1394413;88;20261;-94
2021/09/30 05:33:42;;;;;;;;;;;;;;;13.20;89.94;101277.14;1394735;88;20869;-94
2021/09/30 05:36:09;;;;;;;;;;;;;;;13.20;90.15;101285.61;1380182;89;20239;-93
2021/09/30 05:38:36;;;;;;;;;;;;;;;13.18;89.57;101283.61;1395848;88;20239;-94
2021/09/30 05:41:04;;;;;;;;;;;;;;;13.18;90.13;101288.92;1395115;88;20239;-94
2021/09/30 05:43:34;;;;;;;;;;;;;;;13.16;89.87;101286.89;1395051;88;20911;-93
2021/09/30 05:46:01;;;;;;;;;;;;;;;13.14;89.17;101290.17;1394712;88;20335;-94
2021/09/30 05:48:28;;;;;;;;;;;;;;;13.12;89.59;101296.12;1397210;88;20246;-94
2021/09/30 05:50:57;;;;;;;;;;;;;;;13.09;89.11;101291.45;1394030;88;20323;-91
2021/09/30 05:53:24;;;;;;;;;;;;;;;13.06;89.05;101295.73;1392750;88;20261;-91
2021/09/30 05:55:52;;;;;;;;;;;;;;;13.05;88.79;101293.20;1392860;88;20247;-92
2021/09/30 05:58:19;;;;;;;;;;;;;;;13.05;88.82;101301.17;1392834;88;20339;-92
2021/09/30 06:11:46;;;;;;;;;;;;;;;13.11;89.14;101316.55;1392983;88;20774;-91
2021/09/30 06:14:44;;;;;;;;;;;;;;;13.11;88.68;101313.89;1393280;88;21220;-91
2021/09/30 06:16:48;;;;;;;;;;;;;;;13.06;89.57;101318.31;1389894;88;20759;-89
2021/09/30 06:19:20;;;;;;;;;;;;;;;13.07;89.06;101321.31;1392603;88;20752;-89
2021/09/30 06:21:43;;;;;;;;;;;;;;;13.01;89.86;101317.90;1392462;88;20319;-90
2021/09/30 06:24:10;;;;;;;;;;;;;;;13.02;89.79;101323.55;1392738;88;20797;-89
2021/09/30 06:26:37;;;;;;;;;;;;;;;13.01;89.30;101323.21;1392919;88;20261;-88
2021/09/30 06:29:04;;;;;;;;;;;;;;;13.03;89.67;101321.73;1392837;88;20246;-89
2021/09/30 06:31:30;;;;;;;;;;;;;;;13.06;89.12;101318.78;1392631;88;20299;-90
2021/09/30 06:33:57;;;;;;;;;;;;;;;13.08;89.25;101332.28;1392807;88;20239;-90
2021/09/30 06:36:24;;;;;;;;;;;;;;;13.09;89.43;101324.67;1392701;88;20380;-91
2021/09/30 06:38:51;;;;;;;;;;;;;;;13.07;89.24;101333.27;1393243;88;20269;-91
2021/09/30 06:41:18;;;;;;;;;;;;;;;13.05;89.12;101332.56;1392932;88;20253;-88
2021/09/30 06:43:50;;;;;;;;;;;;;;;13.07;88.53;101336.42;1392666;103;20314;-85
2021/09/30 06:46:17;;;;;;;;;;;;;;;13.06;88.86;101339.58;1392745;88;21150;-85
2021/09/30 06:48:44;;;;;;;;;;;;;;;13.03;89.29;101342.52;1392771;88;20254;-86
2021/09/30 06:51:11;;;;;;;;;;;;;;;13.00;89.22;101340.12;1393105;88;20253;-88
2021/09/30 06:56:14;;;;;;;;;;;;;;;13.00;89.37;101349.42;1378970;90;20257;-88
2021/09/30 06:58:44;;;;;;;;;;;;;;;13.04;90.05;101343.36;1375538;89;20279;-87
2021/09/30 07:01:17;;;;;;;;;;;;;;;13.06;89.53;101344.89;1374660;89;20257;-87
2021/09/30 07:03:45;;;;;;;;;;;;;;;13.08;89.44;101349.55;1374232;89;20257;-88
2021/09/30 07:06:13;;;;;;;;;;;;;;;13.12;89.51;101348.80;1372609;89;20249;-88
2021/09/30 07:08:40;;;;;;;;;;;;;;;13.15;88.88;101345.00;1369552;89;20783;-89
2021/09/30 07:11:06;;;;;;;;;;;;;;;13.18;88.83;101353.55;1355830;90;20249;-88
2021/09/30 07:13:33;;;;;;;;;;;;;;;13.24;88.50;101353.47;1369860;90;20749;-87
2021/09/30 07:16:00;;;;;;;;;;;;;;;13.27;88.37;101354.05;1369977;90;20273;-88
2021/09/30 07:18:28;;;;;;;;;;;;;;;13.28;88.66;101357.05;1366071;90;20244;-88
2021/09/30 07:21:00;;;;;;;;;;;;;;;13.31;88.59;101363.41;1364202;90;20249;-87
2021/09/30 07:23:28;;;;;;;;;;;;;;;13.35;88.51;101362.66;1359697;89;20272;-87
2021/09/30 07:26:00;;;;;;;;;;;;;;;13.36;88.08;101366.98;1353273;90;20764;-88
2021/09/30 07:28:28;;;;;;;;;;;;;;;13.33;87.90;101366.44;1351086;90;20349;-87
2021/09/30 07:30:55;;;;;;;;;;;;;;;13.36;87.65;101368.80;1351561;92;20236;-88
2021/09/30 07:33:24;;;;;;;;;;;;;;;13.33;87.18;101363.77;1351259;92;20281;-88
2021/09/30 07:35:52;;;;;;;;;;;;;;;13.37;87.18;101371.30;1361787;90;20274;-87
2021/09/30 07:38:19;;;;;;;;;;;;;;;13.41;87.13;101374.55;1358032;90;20257;-88
2021/09/30 07:40:46;;;;;;;;;;;;;;;13.45;87.22;101379.91;1369571;89;20280;-88
2021/09/30 07:43:13;;;;;;;;;;;;;;;13.53;87.44;101383.53;1351586;90;20319;-86
2021/09/30 07:45:40;;;;;;;;;;;;;;;13.56;86.93;101378.91;1351445;90;20333;-88
2021/09/30 07:48:07;;;;;;;;;;;;;;;13.59;86.71;101382.12;1358999;92;20267;-88
2021/09/30 07:50:35;;;;;;;;;;;;;;;13.65;86.86;101387.35;1351316;92;20236;-87
2021/09/30 07:53:07;;;;;;;;;;;;;;;13.62;86.37;101392.96;1351254;92;20765;-87
2021/09/30 07:55:34;;;;;;;;;;;;;;;13.59;86.69;101393.25;1359540;90;20257;-88
2021/09/30 07:58:01;;;;;;;;;;;;;;;13.53;87.62;101395.99;1352722;90;20356;-88
2021/09/30 08:00:28;;;;;;;;;;;;;;;13.41;86.93;101395.31;1360358;90;20242;-88
2021/09/30 08:02:55;;;;;;;;;;;;;;;13.47;86.35;101393.41;1368370;89;20287;-88
2021/09/30 08:05:22;;;;;;;;;;;;;;;13.48;86.65;101400.39;1368064;90;20290;-87
2021/09/30 08:07:50;;;;;;;;;;;;;;;13.51;86.35;101400.11;1366807;90;20256;-86
2021/09/30 08:10:45;;;;;;;;;;;;;;;13.49;86.06;101399.44;1350537;90;20266;-89
2021/09/30 08:13:12;;;;;;;;;;;;;;;13.50;85.94;101402.43;1309197;93;20680;-87
2021/09/30 08:15:40;;;;;;;;;;;;;;;13.52;86.07;101405.80;1316396;95;21198;-85
2021/09/30 08:18:09;;;;;;;;;;;;;;;13.59;85.70;101402.56;1323425;94;20832;-86
2021/09/30 08:20:41;;;;;;;;;;;;;;;13.65;86.09;101411.30;1322629;94;20863;-86
2021/09/30 08:23:12;;;;;;;;;;;;;;;13.63;85.69;101411.42;1322768;94;20392;-86
2021/09/30 08:25:40;;;;;;;;;;;;;;;13.72;85.55;101412.38;1322979;94;20434;-86
2021/09/30 08:28:07;;;;;;;;;;;;;;;13.79;85.44;101406.84;1322888;94;20255;-85
2021/09/30 08:30:35;;;;;;;;;;;;;;;13.81;85.78;101410.20;1323884;94;20286;-84
2021/09/30 08:33:02;;;;;;;;;;;;;;;13.76;85.61;101414.62;1323064;94;20360;-92
2021/09/30 08:35:30;;;;;;;;;;;;;;;13.77;85.61;101410.13;1322740;108;20411;-86
2021/09/30 08:37:57;;;;;;;;;;;;;;;13.75;85.80;101417.41;1323103;94;20255;-85
2021/09/30 08:40:24;;;;;;;;;;;;;;;13.71;85.95;101416.03;1318352;95;20836;-86
2021/09/30 08:42:51;;;;;;;;;;;;;;;13.76;85.56;101416.45;1323403;94;21271;-86
2021/09/30 08:45:22;;;;;;;;;;;;;;;13.81;85.83;101415.53;1323152;94;21241;-86
2021/09/30 08:48:01;;;;;;;;;;;;;;;13.86;85.87;101418.57;1323198;94;20844;-86
2021/09/30 08:50:30;;;;;;;;;;;;;;;13.92;85.57;101421.98;1349205;94;20212;-87
2021/09/30 08:52:57;;;;;;;;;;;;;;;13.97;85.46;101419.73;1351030;89;20243;-86
2021/09/30 08:55:24;;;;;;;;;;;;;;;14.05;85.51;101418.17;1372342;89;20247;-85
2021/09/30 08:57:55;;;;;;;;;;;;;;;14.13;85.23;101415.63;1379881;89;20263;-86
2021/09/30 09:00:22;;;;;;;;;;;;;;;14.18;84.89;101419.52;1380301;89;20256;-86
2021/09/30 09:02:51;;;;;;;;;;;;;;;14.21;84.57;101415.70;1380219;89;20866;-86
2021/09/30 09:05:19;;;;;;;;;;;;;;;14.18;84.02;101416.00;1380121;89;20345;-86
2021/09/30 09:11:00;;;;;;;;;;;;;;;14.12;84.40;101418.75;1321105;93;20320;-86
2021/09/30 09:13:33;;;;;;;;;;;;;;;14.09;84.28;101423.54;1321113;94;22543;-87
2021/09/30 09:16:02;;;;;;;;;;;;;;;14.11;84.83;101423.74;1320877;94;20308;-86
2021/09/30 09:18:34;;;;;;;;;;;;;;;14.17;84.08;101424.98;1320946;94;20367;-86
2021/09/30 09:21:07;;;;;;;;;;;;;;;14.21;83.92;101424.55;1320634;94;20827;-86
2021/09/30 09:23:41;;;;;;;;;;;;;;;14.28;84.21;101428.79;1320658;95;20858;-86
2021/09/30 09:26:12;;;;;;;;;;;;;;;14.34;83.76;101418.88;1320751;94;20418;-86
2021/09/30 09:29:02;;;;;;;;;;;;;;;14.35;83.82;101419.20;1320752;94;20836;-86
2021/09/30 09:31:37;;;;;;;;;;;;;;;14.41;83.50;101419.98;1319927;94;20360;-85
2021/09/30 09:34:23;;;;;;;;;;;;;;;14.43;83.25;101423.80;1320774;94;20354;-86
2021/09/30 09:36:52;;;;;;;;;;;;;;;14.44;83.08;101415.68;1320781;94;20351;-86
2021/09/30 09:39:33;;;;;;;;;;;;;;;14.49;83.21;101422.38;1321142;94;20420;-86
2021/09/30 09:42:14;;;;;;;;;;;;;;;14.56;83.16;101423.50;1319886;94;20768;-86
2021/09/30 09:45:01;;;;;;;;;;;;;;;14.62;82.58;101425.06;1335003;94;20256;-86
2021/09/30 09:47:31;;;;;;;;;;;;;;;14.67;82.00;101429.92;1380129;89;20233;-85
2021/09/30 09:50:14;;;;;;;;;;;;;;;14.70;81.80;101428.79;1379521;89;20398;-86
2021/09/30 09:52:53;;;;;;;;;;;;;;;14.64;81.50;101424.90;1380284;89;20412;-86
2021/09/30 09:55:26;;;;;;;;;;;;;;;14.49;81.25;101430.36;1380619;89;20755;-85
2021/09/30 09:58:03;;;;;;;;;;;;;;;14.39;81.67;101427.27;1380495;89;20762;-86
2021/09/30 10:00:36;;;;;;;;;;;;;;;14.38;81.96;101436.22;1380034;89;20264;-86
2021/09/30 10:03:18;;;;;;;;;;;;;;;14.41;82.33;101435.95;1379413;90;20263;-87
2021/09/30 10:05:55;;;;;;;;;;;;;;;14.45;81.99;101439.98;1379633;89;20256;-86
2021/09/30 10:08:23;;;;;;;;;;;;;;;14.47;82.62;101439.82;1380154;89;20270;-86
2021/09/30 10:11:11;;;;;;;;;;;;;;;14.50;82.58;101442.69;1380106;89;20234;-86
2021/09/30 10:13:38;;;;;;;;;;;;;;;14.49;82.14;101442.35;1379915;89;20295;-86
2021/09/30 10:16:05;;;;;;;;;;;;;;;14.43;82.10;101441.95;1380203;91;20301;-86
2021/09/30 10:18:32;;;;;;;;;;;;;;;14.39;82.40;101447.23;1380080;89;20293;-86
2021/09/30 10:21:00;;;;;;;;;;;;;;;14.35;82.30;101451.16;1379833;89;20233;-84
2021/09/30 10:23:30;;;;;;;;;;;;;;;14.36;82.22;101448.87;1380317;89;20284;-84
2021/09/30 10:26:24;;;;;;;;;;;;;;;14.33;82.59;101449.66;1382778;89;20293;-83
2021/09/30 10:28:52;;;;;;;;;;;;;;;14.30;83.04;101453.45;1382755;89;20241;-84
2021/09/30 10:31:25;;;;;;;;;;;;;;;14.27;83.62;101451.55;1379881;89;20293;-83
2021/09/30 10:33:53;;;;;;;;;;;;;;;14.25;83.24;101451.72;1382655;89;20874;-84
2021/09/30 10:36:33;;;;;;;;;;;;;;;14.28;84.90;101447.92;1382818;89;20345;-83
2021/09/30 10:39:23;;;;;;;;;;;;;;;14.28;84.52;101446.59;1382806;89;20248;-84
2021/09/30 10:42:03;;;;;;;;;;;;;;;14.31;84.24;101448.97;1382570;89;20345;-84
2021/09/30 10:44:36;;;;;;;;;;;;;;;14.41;84.76;101449.27;1382606;88;20330;-84
2021/09/30 10:47:07;;;;;;;;;;;;;;;14.48;84.48;101442.02;1382514;89;20355;-84
2021/09/30 10:49:48;;;;;;;;;;;;;;;14.48;84.13;101444.19;1382733;89;20806;-84
2021/09/30 10:52:27;;;;;;;;;;;;;;;14.48;83.66;101448.67;1382840;89;20218;-83
2021/09/30 10:55:10;;;;;;;;;;;;;;;14.44;83.24;101452.97;1382739;89;20746;-84
2021/09/30 10:57:44;;;;;;;;;;;;;;;14.49;84.47;101451.67;1382967;88;20256;-84
2021/09/30 11:00:23;;;;;;;;;;;;;;;14.43;85.09;101451.77;1382839;88;20263;-84
2021/09/30 11:03:09;;;;;;;;;;;;;;;14.40;85.57;101449.41;1382312;88;20234;-83
2021/09/30 11:05:42;;;;;;;;;;;;;;;14.40;84.81;101450.73;1382938;88;20249;-84
2021/09/30 11:08:33;;;;;;;;;;;;;;;14.43;85.36;101449.11;1382600;88;20309;-86
2021/09/30 11:11:04;;;;;;;;;;;;;;;14.47;85.33;101444.31;1382053;89;20353;-85
2021/09/30 11:14:11;;;;;;;;;;;;;;;14.44;85.29;101447.64;1381593;89;20798;-85
2021/09/30 11:16:41;;;;;;;;;;;;;;;14.46;85.17;101447.48;1383161;88;20249;-86
2021/09/30 11:19:34;;;;;;;;;;;;;;;14.54;85.31;101448.11;1383022;89;20331;-86
2021/09/30 11:22:05;;;;;;;;;;;;;;;14.57;85.50;101453.14;1382713;89;20249;-86
2021/09/30 11:24:41;;;;;;;;;;;;;;;14.60;84.68;101455.50;1382799;89;20263;-86
2021/09/30 11:27:12;;;;;;;;;;;;;;;14.60;84.47;101457.67;1382481;89;20754;-86
2021/09/30 11:29:41;;;;;;;;;;;;;;;14.57;84.60;101455.30;1382623;89;20388;-86
2021/09/30 11:32:11;;;;;;;;;;;;;;;14.43;85.81;101462.42;1382678;88;20294;-86
2021/09/30 11:34:42;;;;;;;;;;;;;;;14.42;84.76;101456.77;1382862;88;20256;-86
2021/09/30 11:37:35;;;;;;;;;;;;;;;14.40;85.01;101460.89;1382113;89;20761;-85
2021/09/30 11:40:00;;;;;;;;;;;;;;;14.41;85.47;101461.25;1382657;90;20746;-86
2021/09/30 11:42:37;;;;;;;;;;;;;;;14.42;85.51;101458.92;1382627;89;20353;-86
2021/09/30 11:45:10;;;;;;;;;;;;;;;14.42;85.18;101454.93;1383149;88;20302;-86
2021/09/30 11:47:38;;;;;;;;;;;;;;;14.47;85.64;101461.63;1382718;88;20785;-86
2021/09/30 11:50:18;;;;;;;;;;;;;;;14.47;86.47;101457.63;1383027;88;20770;-86
2021/09/30 11:53:01;;;;;;;;;;;;;;;14.44;86.24;101459.63;1382453;89;20755;-87
2021/09/30 11:55:29;;;;;;;;;;;;;;;14.45;86.75;101458.62;1382709;89;20263;-86
2021/09/30 11:57:59;;;;;;;;;;;;;;;14.49;86.55;101461.00;1366421;90;20778;-86
2021/09/30 12:00:27;;;;;;;;;;;;;;;14.54;86.10;101458.77;1366278;89;20280;-87
2021/09/30 12:03:04;;;;;;;;;;;;;;;14.53;86.63;101459.73;1366068;89;20316;-86
2021/09/30 12:05:34;;;;;;;;;;;;;;;14.50;86.89;101460.00;1366301;90;20264;-85
2021/09/30 12:08:03;;;;;;;;;;;;;;;14.43;86.22;101463.25;1366242;92;21201;-86
2021/09/30 12:10:39;;;;;;;;;;;;;;;14.38;86.88;101464.19;1352230;90;20345;-86
2021/09/30 12:13:17;;;;;;;;;;;;;;;14.35;86.86;101464.98;1352202;91;20354;-87
2021/09/30 12:16:02;;;;;;;;;;;;;;;14.26;87.42;101465.37;1365898;90;20229;-87
2021/09/30 12:18:29;;;;;;;;;;;;;;;14.20;87.48;101462.80;1365230;89;20242;-87
2021/09/30 12:20:58;;;;;;;;;;;;;;;14.18;89.23;101462.59;1352225;89;20266;-87
2021/09/30 12:23:26;;;;;;;;;;;;;;;14.22;88.64;101463.50;1367184;89;20332;-88
2021/09/30 12:25:56;;;;;;;;;;;;;;;14.25;88.70;101463.70;1367339;90;20272;-87
2021/09/30 12:28:23;;;;;;;;;;;;;;;14.30;88.68;101460.11;1362336;92;20258;-88
2021/09/30 12:30:50;;;;;;;;;;;;;;;14.31;88.27;101459.11;1343060;92;20369;-87
2021/09/30 12:33:19;;;;;;;;;;;;;;;14.30;88.35;101462.77;1358299;92;20297;-87
2021/09/30 12:36:02;;;;;;;;;;;;;;;14.30;88.48;101457.92;1355514;92;20287;-88
2021/09/30 12:38:28;;;;;;;;;;;;;;;14.27;88.58;101454.22;1367566;89;20234;-88
2021/09/30 12:40:57;;;;;;;;;;;;;;;14.25;88.38;101453.05;1357190;90;20798;-87
2021/09/30 12:43:29;;;;;;;;;;;;;;;14.27;87.92;101456.88;1349013;91;20318;-87
2021/09/30 12:46:00;;;;;;;;;;;;;;;14.30;88.60;101454.78;1349052;90;20244;-87
2021/09/30 12:48:30;;;;;;;;;;;;;;;14.31;87.49;101453.79;1339897;92;20242;-87
2021/09/30 12:51:00;;;;;;;;;;;;;;;14.30;87.75;101446.80;1357411;92;20251;-87
2021/09/30 12:53:28;;;;;;;;;;;;;;;14.32;87.76;101440.81;1359596;92;20250;-86
2021/09/30 12:56:06;;;;;;;;;;;;;;;14.36;87.41;101443.54;1367904;90;20376;-86
2021/09/30 12:58:47;;;;;;;;;;;;;;;14.36;86.87;101442.71;1367588;90;20393;-86
2021/09/30 13:01:26;;;;;;;;;;;;;;;14.32;86.87;101443.97;1358698;90;20251;-87
2021/09/30 13:04:16;;;;;;;;;;;;;;;14.34;87.34;101438.84;1376225;90;20747;-87
2021/09/30 13:07:05;;;;;;;;;;;;;;;14.36;87.27;101438.72;1377084;90;20747;-86
2021/09/30 13:09:38;;;;;;;;;;;;;;;14.40;88.00;101431.59;1377285;91;20969;-87
2021/09/30 13:12:14;;;;;;;;;;;;;;;14.44;87.42;101431.66;1377322;89;20249;-86
2021/09/30 13:14:54;;;;;;;;;;;;;;;14.48;87.95;101430.03;1377299;91;20826;-88
2021/09/30 13:18:03;;;;;;;;;;;;;;;14.49;87.33;101424.53;1377388;90;20294;-86
2021/09/30 13:20:30;;;;;;;;;;;;;;;14.54;87.23;101434.80;1377745;90;20263;-88
2021/09/30 13:22:57;;;;;;;;;;;;;;;14.58;86.75;101432.16;1377431;89;20792;-87
2021/09/30 13:25:24;;;;;;;;;;;;;;;14.52;85.88;101438.09;1377471;90;20338;-86
2021/09/30 13:27:52;;;;;;;;;;;;;;;14.52;85.88;101432.77;1377283;89;20799;-87
2021/09/30 13:30:23;;;;;;;;;;;;;;;14.54;86.16;101429.46;1377442;89;20248;-87
2021/09/30 13:32:51;;;;;;;;;;;;;;;14.58;85.88;101420.17;1370760;90;20844;-87
2021/09/30 13:35:23;;;;;;;;;;;;;;;14.61;85.14;101425.20;1377322;91;20263;-87
2021/09/30 13:37:48;;;;;;;;;;;;;;;14.57;84.75;101422.00;1380645;89;20327;-86
2021/09/30 13:40:21;;;;;;;;;;;;;;;14.63;85.10;101424.06;1376971;89;20248;-86
2021/09/30 13:42:48;;;;;;;;;;;;;;;14.69;84.58;101422.63;1377061;90;20295;-85
2021/09/30 13:45:17;;;;;;;;;;;;;;;14.72;84.18;101422.33;1377269;89;20279;-86
2021/09/30 13:47:45;;;;;;;;;;;;;;;14.74;83.87;101419.52;1377266;90;20233;-85
2021/09/30 13:50:16;;;;;;;;;;;;;;;14.78;83.89;101418.22;1377234;89;20285;-85
2021/09/30 13:52:47;;;;;;;;;;;;;;;14.78;83.87;101415.06;1373681;89;20250;-85
2021/09/30 13:55:15;;;;;;;;;;;;;;;14.80;83.31;101413.59;1358851;90;20734;-86
2021/09/30 13:57:43;;;;;;;;;;;;;;;14.76;83.65;101414.39;1353055;90;21154;-85
2021/09/30 14:00:12;;;;;;;;;;;;;;;14.73;85.28;101417.83;1349085;90;21104;-85
2021/09/30 14:02:42;;;;;;;;;;;;;;;14.57;84.88;101415.84;1349010;90;20304;-86
2021/09/30 14:05:10;;;;;;;;;;;;;;;14.56;82.11;101415.02;1347606;92;20236;-86
2021/09/30 14:07:41;;;;;;;;;;;;;;;14.54;82.34;101412.98;1349048;92;20246;-86
2021/09/30 14:10:11;;;;;;;;;;;;;;;14.56;81.44;101411.52;1349081;90;20377;-86
2021/09/30 14:12:39;;;;;;;;;;;;;;;14.49;81.51;101409.05;1349132;92;20237;-86
2021/09/30 14:15:16;;;;;;;;;;;;;;;14.42;81.68;101412.31;1349062;92;20780;-86
2021/09/30 14:17:43;;;;;;;;;;;;;;;14.29;80.77;101406.49;1354796;96;20243;-87
2021/09/30 14:20:11;;;;;;;;;;;;;;;14.23;80.78;101417.23;1355661;90;20829;-86
2021/09/30 14:22:39;;;;;;;;;;;;;;;14.16;82.54;101412.17;1366516;89;21183;-87
2021/09/30 14:25:07;;;;;;;;;;;;;;;14.15;83.49;101410.97;1356478;90;20237;-86
2021/09/30 14:27:34;;;;;;;;;;;;;;;14.10;83.41;101402.61;1359725;92;20353;-86
2021/09/30 14:30:04;;;;;;;;;;;;;;;14.04;83.88;101405.83;1349146;90;20251;-85
2021/09/30 14:32:32;;;;;;;;;;;;;;;13.97;82.89;101409.08;1353326;92;20795;-86
2021/09/30 14:35:00;;;;;;;;;;;;;;;13.97;82.88;101401.09;1362142;90;20876;-86
2021/09/30 14:37:27;;;;;;;;;;;;;;;13.99;84.68;101402.30;1367279;92;20257;-88
2021/09/30 14:39:54;;;;;;;;;;;;;;;13.97;84.67;101402.42;1367350;89;20726;-85
2021/09/30 14:42:21;;;;;;;;;;;;;;;13.91;85.20;101399.52;1365025;90;20342;-87
2021/09/30 14:44:49;;;;;;;;;;;;;;;13.86;84.54;101400.44;1366661;90;20794;-95
2021/09/30 14:47:16;;;;;;;;;;;;;;;13.80;84.66;101400.53;1366438;89;20755;-93
2021/09/30 14:49:43;;;;;;;;;;;;;;;13.75;84.84;101398.32;1366178;90;20769;-94
2021/09/30 14:52:12;;;;;;;;;;;;;;;13.69;86.22;101394.88;1366377;90;20241;-94
2021/09/30 14:54:42;;;;;;;;;;;;;;;13.66;86.27;101403.65;1366407;90;20343;-94
2021/09/30 14:57:09;;;;;;;;;;;;;;;13.64;86.67;101397.66;1366674;89;20346;-92
2021/09/30 14:59:38;;;;;;;;;;;;;;;13.67;86.62;101398.70;1366094;90;20249;-90
2021/09/30 15:02:05;;;;;;;;;;;;;;;13.71;86.98;101402.73;1366040;90;20256;-91
2021/09/30 15:04:32;;;;;;;;;;;;;;;13.76;87.60;101401.81;1365790;90;20302;-91
2021/09/30 15:06:59;;;;;;;;;;;;;;;13.77;87.06;101408.80;1366082;90;20780;-93
2021/09/30 15:09:27;;;;;;;;;;;;;;;13.80;87.06;101408.52;1366083;92;20794;-93
2021/09/30 15:11:54;;;;;;;;;;;;;;;13.85;86.80;101408.09;1366225;89;20741;-91
2021/09/30 15:14:22;;;;;;;;;;;;;;;13.89;86.48;101398.32;1366331;90;20309;-91
2021/09/30 15:17:02;;;;;;;;;;;;;;;13.94;86.48;101400.56;1366280;89;20294;-91
2021/09/30 15:19:37;;;;;;;;;;;;;;;13.91;86.46;101397.69;1365791;90;21108;-90
2021/09/30 15:22:05;;;;;;;;;;;;;;;13.89;86.50;101398.82;1366134;90;20316;-91
2021/09/30 15:24:32;;;;;;;;;;;;;;;13.93;86.03;101401.06;1366102;89;20755;-92
2021/09/30 15:26:59;;;;;;;;;;;;;;;13.97;85.63;101401.09;1366098;90;20883;-90
2021/09/30 15:29:26;;;;;;;;;;;;;;;13.98;85.59;101400.59;1366182;89;20257;-90
2021/09/30 15:31:53;;;;;;;;;;;;;;;13.96;85.51;101406.09;1363262;92;20333;-90
2021/09/30 15:34:20;;;;;;;;;;;;;;;13.93;85.74;101401.06;1359624;90;20263;-89
2021/09/30 15:36:47;;;;;;;;;;;;;;;13.86;86.08;101403.94;1352819;90;20865;-89
2021/09/30 15:39:14;;;;;;;;;;;;;;;13.79;86.40;101407.34;1366684;89;20354;-89
2021/09/30 15:41:42;;;;;;;;;;;;;;;13.73;86.41;101408.76;1360525;90;20811;-89
2021/09/30 15:44:10;;;;;;;;;;;;;;;13.65;86.20;101410.80;1347786;92;20355;-88
2021/09/30 15:46:37;;;;;;;;;;;;;;;13.59;86.82;101412.70;1348833;92;20318;-90
2021/09/30 15:49:04;;;;;;;;;;;;;;;13.51;87.71;101411.25;1348828;90;20341;-89
2021/09/30 15:51:32;;;;;;;;;;;;;;;13.47;88.02;101408.53;1348994;92;20327;-90
2021/09/30 15:53:59;;;;;;;;;;;;;;;13.46;88.51;101411.66;1349010;92;20296;-90